Terminal Aerodrome Forecast
Issued by NWS Greer, SC

Current Version | Previous Version | Text Only | Print | Product List | Glossary On
Versions: 1 2 3 4 5 6 7 8 9 10 11 12 13 14 15 16 17 18 19 20
000
FTUS42 KGSP 010500
TAFGSP
TAF
KGSP 010538Z 0106/0206 00000KT P6SM SKC
     FM011000 00000KT 5SM BR FEW250
     FM011300 VRB03KT P6SM FEW250
     FM011500 20004KT P6SM FEW050=

USA.gov is the U.S. government's official web portal to all federal, state and local government web resources and services.